Time;durP1;ratioP1;P1;durP2;ratioP2;P2;SDS_P1;SDS_P2;PMS_P1;PMS_P2;Temp;Humidity;BMP_temperature;BMP_pressure;BME280_temperature;BME280_humidity;BME280_pressure;Samples;Min_cycle;Max_cycle;Signal;HPM_P1;HPM_P2
2021/06/21 04:16:23;;;;;;;0.10;0.10;;;24.50;99.90;;;;;;5453102;23;20226;-84
2021/06/21 04:18:51;;;;;;;0.10;0.10;;;24.50;99.90;;;;;;4921563;29;20209;-82
2021/06/21 04:21:20;;;;;;;0.10;0.10;;;;;;;;;;4928312;29;20214;-82
2021/06/21 04:32:01;;;;;;;0.10;0.10;;;24.50;99.90;;;;;;4905363;29;20236;-82
2021/06/21 04:34:28;;;;;;;0.10;0.10;;;24.50;99.90;;;;;;4920374;29;20206;-79
2021/06/21 04:36:56;;;;;;;0.20;0.20;;;24.60;99.90;;;;;;4921516;29;20254;-80
2021/06/21 04:39:24;;;;;;;0.10;0.10;;;24.60;99.90;;;;;;4920227;29;20393;-83
2021/06/21 04:41:52;;;;;;;0.10;0.10;;;24.70;99.90;;;;;;4923918;29;20238;-80
2021/06/21 04:44:20;;;;;;;0.10;0.10;;;24.70;99.90;;;;;;4919730;29;20214;-79
2021/06/21 04:46:48;;;;;;;0.10;0.10;;;24.80;99.90;;;;;;4919610;29;20711;-81
2021/06/21 04:49:17;;;;;;;0.20;0.20;;;24.90;99.90;;;;;;4919646;29;20277;-79
2021/06/21 04:51:46;;;;;;;0.10;0.10;;;25.00;99.90;;;;;;4921613;29;20735;-81
2021/06/21 04:54:15;;;;;;;0.10;0.10;;;25.00;99.90;;;;;;4920713;29;20195;-79
2021/06/21 04:56:43;;;;;;;0.10;0.10;;;25.10;99.90;;;;;;4919215;29;20231;-81
2021/06/21 04:59:11;;;;;;;0.10;0.10;;;25.20;99.90;;;;;;4920559;29;20202;-79
2021/06/21 05:01:39;;;;;;;0.10;0.10;;;25.30;99.70;;;;;;4919783;29;20206;-79
2021/06/21 05:04:07;;;;;;;0.10;0.10;;;25.40;99.50;;;;;;4919523;29;20210;-79
2021/06/21 05:06:37;;;;;;;0.10;0.10;;;25.40;99.00;;;;;;4920065;29;20263;-79
2021/06/21 05:09:07;;;;;;;0.20;0.20;;;25.50;99.00;;;;;;4921368;29;20270;-78
2021/06/21 05:11:35;;;;;;;0.10;0.10;;;25.40;99.00;;;;;;4915417;29;20785;-74
2021/06/21 05:14:04;;;;;;;0.10;0.10;;;25.60;98.70;;;;;;4914729;29;20211;-75
2021/06/21 05:16:32;;;;;;;0.20;0.20;;;25.50;98.90;;;;;;4914782;29;20880;-75
2021/06/21 05:19:00;;;;;;;0.10;0.10;;;25.50;98.80;;;;;;4918832;29;20203;-81
2021/06/21 05:21:27;;;;;;;0.10;0.10;;;25.60;98.70;;;;;;4920625;29;20739;-81
2021/06/21 05:23:57;;;;;;;0.10;0.10;;;25.70;98.70;;;;;;4920198;29;20683;-82
2021/06/21 05:26:25;;;;;;;0.10;0.10;;;;;;;;;;4919927;29;20712;-82
2021/06/21 05:28:53;;;;;;;0.10;0.10;;;25.90;98.30;;;;;;4920732;29;20258;-82
2021/06/21 05:31:21;;;;;;;0.10;0.10;;;;;;;;;;4922791;29;20270;-81
2021/06/21 05:33:50;;;;;;;0.10;0.10;;;26.10;98.40;;;;;;4923790;29;20203;-81
2021/06/21 05:36:17;;;;;;;0.10;0.10;;;26.10;98.40;;;;;;4922233;29;20230;-82
2021/06/21 05:38:45;;;;;;;0.10;0.10;;;26.20;99.00;;;;;;4921970;29;20258;-81
2021/06/21 05:41:14;;;;;;;0.10;0.10;;;26.20;98.00;;;;;;4921684;29;20267;-83
2021/06/21 05:43:42;;;;;;;0.10;0.10;;;26.20;98.10;;;;;;4921874;29;20683;-81
2021/06/21 05:46:10;;;;;;;0.10;0.10;;;26.30;97.60;;;;;;4923498;29;20230;-83
2021/06/21 05:48:38;;;;;;;0.10;0.10;;;26.30;97.80;;;;;;4920938;29;20222;-83
2021/06/21 05:51:06;;;;;;;0.10;0.10;;;26.20;97.90;;;;;;4925253;29;20210;-81
2021/06/21 05:53:34;;;;;;;0.10;0.10;;;26.30;97.40;;;;;;4923707;29;20214;-81
2021/06/21 05:56:02;;;;;;;0.10;0.10;;;26.50;97.70;;;;;;4916328;29;20222;-81
2021/06/21 05:58:31;;;;;;;0.10;0.10;;;26.50;97.00;;;;;;4916477;29;20254;-81
2021/06/21 12:00:30;;;;;;;0.10;0.10;;;30.00;99.90;;;;;;5996745;23;21204;-75
2021/06/21 12:03:01;;;;;;;0.10;0.10;;;30.00;81.00;;;;;;4897409;29;20211;-76
2021/06/21 12:05:29;;;;;;;0.00;0.00;;;30.20;81.70;;;;;;4897700;29;20674;-76
2021/06/21 12:07:57;;;;;;;0.10;0.10;;;30.20;78.80;;;;;;4897750;29;20207;-76
2021/06/21 12:10:25;;;;;;;0.10;0.10;;;30.20;85.50;;;;;;4897707;29;20282;-76
2021/06/21 12:12:55;;;;;;;0.00;0.00;;;30.30;76.80;;;;;;4897970;29;20267;-76
2021/06/21 12:15:30;;;;;;;0.10;0.10;;;30.40;77.30;;;;;;4897958;29;20215;-75
2021/06/21 12:17:58;;;;;;;0.00;0.00;;;30.60;76.40;;;;;;4897695;29;20206;-75
2021/06/21 12:20:27;;;;;;;0.10;0.10;;;30.70;74.90;;;;;;4897474;29;20215;-76
2021/06/21 12:23:01;;;;;;;0.10;0.10;;;30.40;75.30;;;;;;4897467;29;20675;-75
2021/06/21 12:25:33;;;;;;;0.10;0.10;;;30.80;73.00;;;;;;4897055;29;20259;-74
2021/06/21 12:28:16;;;;;;;0.00;0.00;;;30.90;74.80;;;;;;4897654;29;20261;-74
2021/06/21 12:30:47;;;;;;;0.10;0.10;;;31.20;71.80;;;;;;4897385;29;20266;-74
2021/06/21 12:33:24;;;;;;;0.10;0.10;;;31.60;70.00;;;;;;4897267;29;20283;-74
2021/06/21 12:36:20;;;;;;;0.03;0.03;;;32.00;67.50;;;;;;4896928;29;20236;-74
2021/06/21 12:38:56;;;;;;;0.10;0.10;;;32.50;64.40;;;;;;4897462;29;20233;-74
2021/06/21 12:41:26;;;;;;;0.00;0.00;;;33.20;63.60;;;;;;4896887;29;20796;-74
2021/06/21 12:43:56;;;;;;;0.00;0.00;;;34.00;60.60;;;;;;4897244;29;20581;-75
2021/06/21 12:46:28;;;;;;;0.00;0.00;;;34.60;59.60;;;;;;4896303;29;20199;-75
2021/06/21 12:48:56;;;;;;;0.00;0.00;;;35.40;58.80;;;;;;4897145;29;20259;-74
2021/06/21 12:51:24;;;;;;;0.00;0.00;;;35.50;58.00;;;;;;4896541;29;20637;-74
2021/06/21 12:53:54;;;;;;;0.00;0.00;;;35.60;57.70;;;;;;4896643;29;20675;-73
2021/06/21 12:56:25;;;;;;;0.00;0.00;;;35.50;57.50;;;;;;4896970;29;20227;-73
2021/06/21 12:58:54;;;;;;;0.00;0.00;;;36.00;57.10;;;;;;4896515;29;20198;-75
2021/06/21 13:01:23;;;;;;;0.00;0.00;;;36.00;57.00;;;;;;4896304;29;20255;-72
2021/06/21 13:03:53;;;;;;;0.00;0.00;;;37.00;56.20;;;;;;4896993;29;20332;-73
2021/06/21 13:06:36;;;;;;;0.00;0.00;;;37.00;55.90;;;;;;4896316;29;20676;-73
2021/06/21 13:09:08;;;;;;;0.00;0.00;;;36.70;55.40;;;;;;4896430;29;20231;-74
2021/06/21 13:11:57;;;;;;;0.00;0.00;;;37.40;54.90;;;;;;4896318;29;20254;-73
2021/06/21 13:14:30;;;;;;;0.00;0.00;;;37.40;52.90;;;;;;4896333;29;20230;-73
2021/06/21 13:17:12;;;;;;;0.00;0.00;;;36.90;53.40;;;;;;4893315;29;20210;-73
2021/06/21 13:19:47;;;;;;;0.00;0.00;;;37.60;52.10;;;;;;4894040;29;20195;-74
2021/06/21 13:22:26;;;;;;;0.00;0.00;;;37.70;51.40;;;;;;4891942;29;20603;-74
2021/06/21 13:24:55;;;;;;;0.00;0.00;;;38.00;52.00;;;;;;4894825;29;20684;-73
2021/06/21 13:27:25;;;;;;;0.00;0.00;;;38.60;50.50;;;;;;4896631;29;20207;-74
2021/06/21 13:29:55;;;;;;;0.00;0.00;;;38.80;49.40;;;;;;4896730;29;20313;-74
2021/06/21 13:32:26;;;;;;;0.00;0.00;;;38.30;50.00;;;;;;4895821;29;20226;-75
2021/06/21 13:34:58;;;;;;;0.00;0.00;;;38.20;50.40;;;;;;4896856;29;20278;-77
2021/06/21 13:37:28;;;;;;;0.00;0.00;;;38.10;50.50;;;;;;4897059;29;20199;-75
2021/06/21 13:40:00;;;;;;;0.00;0.00;;;37.90;50.10;;;;;;4895971;29;20219;-76
2021/06/21 13:42:38;;;;;;;0.00;0.00;;;37.70;50.30;;;;;;4896613;29;20215;-77
2021/06/21 13:45:10;;;;;;;0.00;0.00;;;37.40;50.00;;;;;;4894466;29;20199;-76
2021/06/21 13:47:41;;;;;;;0.00;0.00;;;37.10;50.30;;;;;;4895785;29;20199;-76
2021/06/21 13:50:14;;;;;;;0.00;0.00;;;36.60;50.80;;;;;;4895601;29;20630;-76
2021/06/21 13:52:44;;;;;;;0.00;0.00;;;36.60;51.30;;;;;;4893859;29;20230;-76
2021/06/21 13:55:15;;;;;;;0.00;0.00;;;36.60;50.50;;;;;;4895612;29;20203;-74
2021/06/21 13:57:46;;;;;;;0.00;0.00;;;36.30;51.50;;;;;;4893975;29;20238;-73
2021/06/21 14:00:30;;;;;;;0.00;0.00;;;35.00;69.90;;;;;;4894629;29;20271;-73
2021/06/21 14:02:59;;;;;;;0.00;0.00;;;35.20;54.60;;;;;;4897161;29;20210;-73
2021/06/21 14:05:28;;;;;;;0.00;0.00;;;34.80;53.70;;;;;;4898510;29;20238;-74
2021/06/21 14:07:57;;;;;;;0.00;0.00;;;34.30;54.20;;;;;;4898923;29;20283;-72
2021/06/21 14:10:25;;;;;;;0.00;0.00;;;33.20;73.50;;;;;;4898837;29;20222;-73
2021/06/21 14:12:54;;;;;;;0.00;0.00;;;33.10;56.90;;;;;;4899193;29;20214;-74
2021/06/21 14:15:22;;;;;;;0.00;0.00;;;32.80;58.20;;;;;;4900132;29;20270;-76
2021/06/21 14:17:49;;;;;;;0.00;0.00;;;32.40;57.70;;;;;;4899241;29;20199;-73
2021/06/21 14:20:18;;;;;;;0.03;0.03;;;32.00;76.50;;;;;;4898810;29;20255;-73
2021/06/21 14:22:47;;;;;;;0.00;0.00;;;31.90;58.60;;;;;;4899278;29;20618;-75
2021/06/21 14:25:15;;;;;;;0.00;0.00;;;31.80;58.60;;;;;;4898868;29;20196;-76
2021/06/21 14:27:43;;;;;;;0.00;0.00;;;31.80;59.30;;;;;;4899031;29;20263;-75
2021/06/21 14:30:12;;;;;;;0.00;0.00;;;31.70;77.80;;;;;;4899160;29;20326;-75
2021/06/21 14:32:40;;;;;;;0.00;0.00;;;31.80;59.50;;;;;;4897011;29;20676;-75
2021/06/21 14:35:10;;;;;;;0.00;0.00;;;31.80;58.90;;;;;;4898984;29;20254;-75
2021/06/21 14:37:38;;;;;;;0.00;0.00;;;31.90;59.50;;;;;;4896658;29;20203;-74
2021/06/21 14:40:08;;;;;;;0.00;0.00;;;31.80;59.10;;;;;;4898559;29;20200;-74
2021/06/21 14:42:37;;;;;;;0.00;0.00;;;31.70;59.70;;;;;;4899443;29;20211;-74
2021/06/21 14:45:07;;;;;;;0.00;0.00;;;31.80;59.90;;;;;;4899227;29;20672;-73
2021/06/21 14:47:35;;;;;;;0.00;0.00;;;31.80;60.20;;;;;;4898550;29;20682;-74
2021/06/21 14:50:14;;;;;;;0.00;0.00;;;31.60;60.20;;;;;;4898657;29;20219;-74
2021/06/21 14:52:44;;;;;;;0.10;0.10;;;31.50;60.00;;;;;;4897628;29;20255;-73
2021/06/21 14:55:16;;;;;;;0.10;0.10;;;31.40;60.10;;;;;;4898662;29;20701;-74
2021/06/21 14:57:46;;;;;;;0.00;0.00;;;31.40;60.70;;;;;;4897080;29;20207;-73
2021/06/21 15:00:17;;;;;;;0.10;0.10;;;31.40;80.30;;;;;;4880237;29;20236;-73
2021/06/21 15:02:46;;;;;;;0.00;0.00;;;31.30;60.80;;;;;;4880668;29;20207;-73
2021/06/21 15:05:16;;;;;;;0.10;0.10;;;31.10;60.80;;;;;;4904250;29;21445;-73
2021/06/21 15:07:45;;;;;;;0.00;0.00;;;31.00;60.70;;;;;;4901676;29;20254;-73
2021/06/21 15:10:18;;;;;;;0.00;0.00;;;30.80;83.50;;;;;;4897403;29;20220;-72
2021/06/21 15:12:47;;;;;;;0.00;0.00;;;30.80;62.10;;;;;;4895061;29;20251;-73
2021/06/21 15:15:18;;;;;;;0.10;0.10;;;30.90;62.10;;;;;;4896373;29;20294;-73
2021/06/21 15:17:47;;;;;;;0.00;0.00;;;30.80;62.10;;;;;;4896703;29;20263;-73
2021/06/21 15:20:17;;;;;;;0.00;0.00;;;30.80;83.90;;;;;;4896956;29;20207;-76
2021/06/21 15:22:45;;;;;;;0.10;0.10;;;30.70;62.00;;;;;;4897443;29;20282;-74
2021/06/21 15:25:15;;;;;;;0.00;0.00;;;30.90;61.90;;;;;;4896836;29;20195;-73
2021/06/21 15:27:44;;;;;;;0.10;0.10;;;31.00;61.80;;;;;;4898005;29;20199;-73
2021/06/21 15:30:16;;;;;;;0.10;0.10;;;30.90;83.10;;;;;;4896538;29;20712;-74
2021/06/21 15:32:44;;;;;;;0.10;0.10;;;31.00;61.40;;;;;;4896460;29;20199;-73
2021/06/21 15:35:15;;;;;;;0.00;0.00;;;31.00;61.40;;;;;;4896030;29;20279;-74
2021/06/21 15:37:43;;;;;;;0.00;0.00;;;31.10;61.50;;;;;;4896464;29;20232;-74
2021/06/21 15:40:13;;;;;;;0.00;0.00;;;30.90;84.30;;;;;;4896318;29;20742;-74
2021/06/21 15:42:43;;;;;;;0.00;0.00;;;31.00;63.10;;;;;;4893660;29;20262;-73
2021/06/21 15:45:13;;;;;;;0.00;0.00;;;30.80;63.10;;;;;;4896637;29;20617;-73
2021/06/21 15:47:41;;;;;;;0.00;0.00;;;30.80;63.20;;;;;;4895985;29;20204;-73
2021/06/21 15:50:12;;;;;;;0.00;0.00;;;31.00;64.50;;;;;;4896365;29;20291;-73
2021/06/21 15:52:42;;;;;;;0.00;0.00;;;31.10;63.60;;;;;;4896602;29;20272;-72
2021/06/21 15:55:13;;;;;;;0.00;0.00;;;31.10;63.80;;;;;;4896059;29;20203;-73
2021/06/21 15:57:46;;;;;;;0.10;0.10;;;31.10;63.00;;;;;;4895128;29;20210;-73
2021/06/21 16:00:16;;;;;;;0.00;0.00;;;30.90;84.80;;;;;;4897204;29;20203;-73
2021/06/21 16:02:45;;;;;;;0.00;0.00;;;30.90;63.20;;;;;;4897498;29;20692;-74
2021/06/21 16:05:16;;;;;;;0.10;0.10;;;30.80;63.00;;;;;;4897418;29;20866;-79
2021/06/21 16:07:44;;;;;;;0.10;0.10;;;30.80;62.80;;;;;;4899528;29;20207;-76
2021/06/21 16:10:13;;;;;;;0.08;0.08;;;30.60;85.20;;;;;;4897257;29;20207;-76
2021/06/21 16:12:42;;;;;;;0.10;0.10;;;30.60;63.20;;;;;;4897940;29;20725;-77
2021/06/21 16:15:11;;;;;;;0.10;0.10;;;30.70;63.50;;;;;;4898197;29;20217;-77
2021/06/21 16:17:39;;;;;;;0.03;0.03;;;30.80;63.10;;;;;;4897240;29;20290;-76
2021/06/21 16:20:09;;;;;;;0.10;0.10;;;30.90;62.20;;;;;;4897117;29;20282;-76
2021/06/21 16:22:38;;;;;;;0.00;0.00;;;31.20;62.10;;;;;;4897542;29;20211;-74
2021/06/21 16:25:07;;;;;;;0.10;0.10;;;31.20;60.40;;;;;;4897349;29;20286;-77
2021/06/21 16:27:36;;;;;;;0.00;0.00;;;31.30;60.80;;;;;;4897749;29;20745;-75
2021/06/21 16:30:09;;;;;;;0.00;0.00;;;31.60;81.00;;;;;;4896865;29;20211;-76
2021/06/21 16:32:39;;;;;;;0.10;0.10;;;31.40;60.70;;;;;;4896793;29;20231;-74
2021/06/21 16:35:08;;;;;;;0.00;0.00;;;31.50;61.40;;;;;;4899335;29;20243;-77
2021/06/21 16:37:36;;;;;;;0.00;0.00;;;;;;;;;;4900842;29;20259;-78
2021/06/21 16:40:06;;;;;;;0.10;0.10;;;31.30;60.30;;;;;;4900891;29;20261;-77
2021/06/21 16:42:34;;;;;;;0.00;0.00;;;31.20;61.20;;;;;;4897779;29;20271;-73
2021/06/21 16:45:03;;;;;;;0.10;0.10;;;31.20;61.20;;;;;;4897572;29;20300;-75
2021/06/21 16:47:32;;;;;;;0.08;0.08;;;31.30;59.90;;;;;;4896999;29;20230;-75
2021/06/21 16:50:00;;;;;;;0.10;0.10;;;31.40;59.30;;;;;;4896983;29;20222;-76
2021/06/21 16:52:28;;;;;;;0.00;0.00;;;31.40;61.60;;;;;;4896724;29;20641;-77
2021/06/21 16:54:56;;;;;;;0.00;0.00;;;31.30;60.00;;;;;;4889492;29;20219;-76
2021/06/21 16:57:27;;;;;;;0.10;0.10;;;31.40;59.90;;;;;;4891674;29;20203;-76
2021/06/21 16:59:56;;;;;;;0.00;0.00;;;31.50;60.20;;;;;;4893997;29;20215;-76
2021/06/21 17:02:24;;;;;;;0.00;0.00;;;31.70;60.20;;;;;;4901861;29;20219;-77
2021/06/21 17:04:53;;;;;;;0.00;0.00;;;32.10;60.50;;;;;;4896436;29;20199;-77
2021/06/21 17:07:21;;;;;;;0.03;0.03;;;32.20;60.40;;;;;;4892949;29;20250;-77
2021/06/21 17:09:49;;;;;;;0.00;0.00;;;32.40;60.00;;;;;;4895698;29;20203;-76
2021/06/21 17:12:17;;;;;;;0.00;0.00;;;32.60;61.20;;;;;;4893893;29;20262;-79
2021/06/21 17:14:45;;;;;;;0.00;0.00;;;32.50;59.60;;;;;;4896681;29;20219;-76
2021/06/21 17:17:13;;;;;;;0.00;0.00;;;32.70;60.70;;;;;;4895985;29;20251;-75
2021/06/21 17:19:41;;;;;;;0.85;0.85;;;32.90;58.70;;;;;;4896903;29;20203;-78
2021/06/21 17:22:10;;;;;;;0.10;0.10;;;32.90;58.60;;;;;;4897488;29;20274;-79
2021/06/21 17:24:39;;;;;;;0.05;0.05;;;33.20;58.00;;;;;;4901665;29;20546;-82
2021/06/21 17:27:08;;;;;;;0.10;0.10;;;33.70;58.80;;;;;;4899577;29;20203;-83
2021/06/21 17:29:39;;;;;;;0.10;0.10;;;34.10;57.90;;;;;;4898305;29;20218;-82
2021/06/21 17:32:08;;;;;;;0.10;0.10;;;34.40;55.40;;;;;;4898892;29;20285;-82
2021/06/21 17:34:36;;;;;;;0.10;0.10;;;35.10;54.80;;;;;;4898875;29;20218;-82
2021/06/21 17:37:04;;;;;;;0.10;0.10;;;35.60;54.30;;;;;;4897940;29;20203;-82
2021/06/21 17:39:33;;;;;;;0.10;0.10;;;35.20;54.00;;;;;;4899148;29;20195;-82
2021/06/21 17:42:01;;;;;;;0.00;0.00;;;35.40;53.80;;;;;;4898301;29;20223;-83
2021/06/21 17:44:29;;;;;;;0.00;0.00;;;34.90;54.90;;;;;;4898134;29;20214;-81
2021/06/21 17:46:57;;;;;;;0.00;0.00;;;34.70;54.30;;;;;;4898828;29;20266;-80
2021/06/21 17:49:25;;;;;;;0.00;0.00;;;33.80;55.50;;;;;;4898588;29;20199;-81
2021/06/21 17:51:53;;;;;;;0.00;0.00;;;32.90;56.50;;;;;;4900989;29;20255;-81
2021/06/21 17:54:21;;;;;;;0.00;0.00;;;32.10;58.40;;;;;;4899039;29;20211;-81
2021/06/21 17:56:50;;;;;;;0.10;0.10;;;31.50;59.40;;;;;;4897639;29;20606;-81
2021/06/21 17:59:18;;;;;;;0.00;0.00;;;31.30;59.80;;;;;;4890797;29;20208;-81
2021/06/21 18:01:46;;;;;;;0.10;0.10;;;30.90;61.20;;;;;;4897273;29;20255;-79
2021/06/21 18:04:14;;;;;;;0.10;0.10;;;30.50;60.00;;;;;;4896779;29;20207;-79
2021/06/21 18:06:42;;;;;;;0.00;0.00;;;30.00;59.30;;;;;;4897406;29;20756;-80
2021/06/21 18:09:10;;;;;;;0.10;0.10;;;29.70;60.80;;;;;;4897633;29;20208;-80
2021/06/21 18:11:37;;;;;;;0.10;0.10;;;29.40;61.20;;;;;;4897127;29;20231;-79
2021/06/21 18:14:08;;;;;;;0.10;0.10;;;29.30;61.80;;;;;;4924288;23;20226;-81
2021/06/21 18:16:36;;;;;;;0.10;0.10;;;29.40;62.10;;;;;;4896877;29;20200;-81
2021/06/21 18:19:04;;;;;;;0.10;0.10;;;29.20;63.30;;;;;;4901738;29;20204;-80
2021/06/21 18:21:32;;;;;;;0.20;0.20;;;29.60;81.30;;;;;;4919797;29;20232;-80
2021/06/21 18:24:00;;;;;;;0.70;0.70;;;29.60;62.80;;;;;;4920956;29;20211;-79
2021/06/21 18:26:30;;;;;;;0.80;0.80;;;30.20;61.30;;;;;;4921123;29;20218;-80
2021/06/21 18:28:58;;;;;;;0.70;0.70;;;31.00;60.20;;;;;;4916622;29;20232;-83
2021/06/21 18:31:27;;;;;;;0.63;0.63;;;31.70;58.50;;;;;;4895679;29;20231;-83
2021/06/21 18:33:55;;;;;;;0.50;0.50;;;32.30;58.80;;;;;;4895548;29;20223;-81
2021/06/21 18:36:24;;;;;;;0.40;0.40;;;32.50;58.10;;;;;;4897293;29;20207;-83
2021/06/21 18:38:51;;;;;;;0.10;0.10;;;32.60;57.30;;;;;;4897006;29;20345;-82
2021/06/21 18:41:21;;;;;;;0.03;0.03;;;32.20;57.80;;;;;;4896157;29;20203;-84
2021/06/21 18:43:49;;;;;;;0.00;0.00;;;31.60;58.60;;;;;;4896370;29;20278;-82
2021/06/21 18:46:18;;;;;;;0.00;0.00;;;31.20;59.60;;;;;;4895434;29;20724;-82
2021/06/21 18:48:47;;;;;;;0.10;0.10;;;30.80;60.30;;;;;;4897714;29;20634;-81
2021/06/21 18:51:16;;;;;;;0.00;0.00;;;30.40;61.10;;;;;;4900135;29;20211;-80
2021/06/21 18:53:44;;;;;;;0.00;0.00;;;30.20;62.50;;;;;;4900341;29;20263;-81
2021/06/21 18:56:13;;;;;;;0.10;0.10;;;29.80;62.80;;;;;;4900673;29;20260;-81
2021/06/21 18:58:41;;;;;;;0.10;0.10;;;29.60;63.50;;;;;;4900433;29;20668;-82
2021/06/21 19:01:09;;;;;;;0.10;0.10;;;29.20;64.10;;;;;;4898348;29;20681;-81
2021/06/21 19:03:52;;;;;;;0.00;0.00;;;29.30;64.60;;;;;;4883011;29;20887;-82
2021/06/21 19:06:20;;;;;;;0.10;0.10;;;29.10;65.20;;;;;;4885379;29;20283;-81
2021/06/21 19:08:48;;;;;;;0.00;0.00;;;29.00;65.40;;;;;;4882930;29;20208;-83
2021/06/21 19:11:16;;;;;;;0.10;0.10;;;29.00;65.90;;;;;;4884368;29;20271;-83
2021/06/21 19:13:44;;;;;;;0.10;0.10;;;;;;;;;;4884028;29;20313;-82
2021/06/21 19:16:12;;;;;;;0.10;0.10;;;28.80;65.90;;;;;;4884134;29;20216;-81
2021/06/21 19:18:40;;;;;;;0.10;0.10;;;28.80;66.70;;;;;;4882989;29;20267;-80
2021/06/21 19:21:10;;;;;;;0.10;0.10;;;28.60;67.20;;;;;;4883022;29;20215;-81
2021/06/21 19:23:38;;;;;;;0.10;0.10;;;28.70;86.80;;;;;;4882355;29;20268;-80
2021/06/21 19:26:06;;;;;;;0.03;0.03;;;28.30;67.80;;;;;;4881850;29;20204;-80
2021/06/21 19:28:34;;;;;;;0.10;0.10;;;28.60;67.80;;;;;;4881799;29;20212;-80
2021/06/21 19:31:02;;;;;;;0.10;0.10;;;28.50;68.30;;;;;;4880644;29;20211;-79
2021/06/21 19:33:30;;;;;;;0.10;0.10;;;28.60;88.70;;;;;;4881265;29;20231;-81
2021/06/21 19:36:03;;;;;;;0.10;0.10;;;28.50;70.20;;;;;;4881616;29;20741;-79
2021/06/21 19:38:34;;;;;;;0.10;0.10;;;28.40;71.30;;;;;;4881586;29;20196;-80
2021/06/21 19:41:02;;;;;;;0.10;0.10;;;28.50;70.60;;;;;;4881016;29;20247;-79
2021/06/21 19:43:30;;;;;;;0.10;0.10;;;28.30;88.50;;;;;;4880738;29;20580;-80
2021/06/21 19:45:58;;;;;;;0.10;0.10;;;28.30;69.80;;;;;;4881360;29;20240;-80
2021/06/21 19:48:27;;;;;;;0.10;0.10;;;28.20;69.90;;;;;;4880448;29;20587;-82
2021/06/21 19:50:55;;;;;;;0.10;0.10;;;28.00;70.70;;;;;;4880429;29;20208;-82
2021/06/21 19:53:23;;;;;;;0.10;0.10;;;27.80;89.80;;;;;;4880571;29;20299;-82
2021/06/21 19:55:55;;;;;;;0.10;0.10;;;27.80;71.20;;;;;;4880500;29;20208;-80
2021/06/21 19:58:24;;;;;;;0.10;0.10;;;27.70;72.70;;;;;;4882129;29;20212;-80
2021/06/21 20:00:52;;;;;;;0.10;0.10;;;27.60;72.80;;;;;;4882451;29;20212;-80
2021/06/21 20:03:20;;;;;;;0.10;0.10;;;27.50;72.90;;;;;;4883372;29;20264;-81
2021/06/21 20:05:50;;;;;;;0.10;0.10;;;27.30;73.50;;;;;;4882918;29;20204;-81
2021/06/21 20:08:19;;;;;;;0.10;0.10;;;27.30;73.70;;;;;;4882972;29;20208;-82
2021/06/21 20:10:48;;;;;;;0.10;0.10;;;27.20;74.20;;;;;;4882324;29;20208;-80
2021/06/21 20:13:18;;;;;;;0.10;0.10;;;27.20;74.80;;;;;;4881325;29;20258;-78
2021/06/21 20:15:46;;;;;;;0.10;0.10;;;27.10;75.30;;;;;;4882704;29;20309;-80
2021/06/21 20:18:15;;;;;;;0.10;0.10;;;27.00;76.50;;;;;;4883249;29;20211;-81
2021/06/21 20:20:44;;;;;;;0.10;0.10;;;26.70;77.10;;;;;;4881469;29;20674;-82
2021/06/21 20:23:12;;;;;;;0.10;0.10;;;26.80;77.60;;;;;;4882084;29;20221;-82
2021/06/21 20:25:40;;;;;;;0.10;0.10;;;26.70;78.20;;;;;;4881401;29;20281;-82
2021/06/21 20:28:09;;;;;;;0.10;0.10;;;26.70;78.20;;;;;;4880367;29;20207;-81
2021/06/21 20:30:39;;;;;;;0.10;0.10;;;26.40;78.70;;;;;;4873469;29;20251;-82
2021/06/21 20:33:09;;;;;;;0.10;0.10;;;26.40;79.60;;;;;;4883663;29;20220;-81
2021/06/21 20:35:38;;;;;;;0.10;0.10;;;26.40;79.80;;;;;;4878283;29;20228;-82
2021/06/21 20:38:10;;;;;;;0.10;0.10;;;26.40;80.20;;;;;;4872818;29;20208;-81
2021/06/21 20:40:39;;;;;;;0.10;0.10;;;26.30;80.90;;;;;;4866181;29;20205;-81
2021/06/21 20:43:08;;;;;;;0.10;0.10;;;26.30;80.80;;;;;;4874836;29;20256;-81
2021/06/21 20:45:38;;;;;;;0.10;0.10;;;26.40;81.00;;;;;;4867707;29;20231;-81
2021/06/21 20:48:07;;;;;;;0.10;0.10;;;26.50;80.80;;;;;;4869495;29;20197;-80
2021/06/21 20:50:37;;;;;;;0.10;0.10;;;26.60;81.20;;;;;;4892814;29;20260;-81
2021/06/21 20:53:07;;;;;;;0.10;0.10;;;26.60;80.90;;;;;;4895293;29;20248;-79
2021/06/21 20:55:35;;;;;;;0.10;0.10;;;26.50;81.10;;;;;;4901772;29;20212;-81
2021/06/21 20:58:03;;;;;;;0.10;0.10;;;26.40;81.30;;;;;;4902717;29;20212;-79
